グアダラハラ の空港の天気 - METARとTAF

ドン・ミゲル・イダルゴ・イ・コスティージャ国際空港 ( MMGL / GDL ) - メキシコ ハリスコ州グアダラハラ
飛行場実況気象(Metar)
観測時間02/01 09:47 CST (02/01 15:47 UTC)
風向・風速東南東 2m/s
視程10km以上
天気現象
少しの雲 雲底高度 9140m
気温18℃
湿度52%
気圧1024hPa
METARMMGL 011547Z 12003KT 7SM FEW300 18/08 A3025 RMK 8/001 HZY
過去の天気等 Google飛行場航空写真 Wunderground天気予報

過去48時間のMETAR

飛行場予報(TAF)
発表時間: 2/01 05:03 CST (2/01 11:03 UTC)
予報対象時間: 1日6時 CST ~ 2日6時 CST
風向・風速北北東 3m/s
視程10km以上
なし
1日12時 CST から
風向・風速南 3m/s
視程10km以上
なし
1日18時 CST ~ 1日19時 CST に徐々に
風向・風速西南西 5m/s
2日0時 CST から
風向・風速静穏
視程10km以上
なし
TAF MMGL 011103Z 0112/0212 02005KT P6SM SKC TX27/0121Z TN09/0112Z
FM011800 18005KT P6SM SKC
BECMG 0200/0201 25010KT
FM020600 00000KT P6SM SKC